createdAt,value
2023-04-29T00:00:29.191Z,3.73
2023-04-29T00:02:56.696Z,3.70
2023-04-29T00:05:24.509Z,3.67
2023-04-29T00:07:51.985Z,3.50
2023-04-29T00:10:19.436Z,3.50
2023-04-29T00:12:46.843Z,3.40
2023-04-29T00:15:14.425Z,3.20
2023-04-29T00:17:43.192Z,3.50
2023-04-29T00:20:11.889Z,3.13
2023-04-29T00:22:39.725Z,3.20
2023-04-29T00:25:07.793Z,3.50
2023-04-29T00:27:35.143Z,3.33
2023-04-29T00:30:03.699Z,3.20
2023-04-29T00:32:31.113Z,3.40
2023-04-29T00:34:59.900Z,3.10
2023-04-29T00:37:27.267Z,4.83
2023-04-29T00:39:54.695Z,4.27
2023-04-29T00:42:22.523Z,3.40
2023-04-29T00:44:49.901Z,3.47
2023-04-29T00:47:17.347Z,3.60
2023-04-29T00:49:44.892Z,3.40
2023-04-29T00:52:14.196Z,3.90
2023-04-29T00:54:41.853Z,3.60
2023-04-29T00:57:09.263Z,3.23
2023-04-29T00:59:36.709Z,3.97
2023-04-29T01:02:04.700Z,4.27
2023-04-29T01:04:32.248Z,3.63
2023-04-29T01:07:06.165Z,4.00
2023-04-29T01:09:42.319Z,4.20
2023-04-29T01:12:16.545Z,4.63
2023-04-29T01:14:46.908Z,4.20
2023-04-29T01:17:19.333Z,4.60
2023-04-29T01:19:48.639Z,4.90
2023-04-29T01:22:17.721Z,4.93
2023-04-29T01:24:46.670Z,5.30
2023-04-29T01:27:18.964Z,4.70
2023-04-29T01:29:52.914Z,4.63
2023-04-29T01:32:24.161Z,4.93
2023-04-29T01:34:56.077Z,4.67
2023-04-29T01:37:25.905Z,4.90
2023-04-29T01:39:58.805Z,4.37
2023-04-29T01:42:30.913Z,4.57
2023-04-29T01:45:02.529Z,4.40
2023-04-29T01:47:30.726Z,5.00
2023-04-29T01:49:58.280Z,4.47
2023-04-29T01:52:25.698Z,4.77
2023-04-29T01:54:57.988Z,4.90
2023-04-29T01:57:30.020Z,4.90
2023-04-29T02:00:14.301Z,4.47
2023-04-29T02:02:45.104Z,4.80
2023-04-29T02:05:20.804Z,4.57
2023-04-29T02:07:55.458Z,4.57
2023-04-29T02:10:24.463Z,4.57
2023-04-29T02:13:01.666Z,4.30
2023-04-29T02:15:29.996Z,4.13
2023-04-29T02:17:57.481Z,4.20
2023-04-29T02:20:24.906Z,4.40
2023-04-29T02:22:52.387Z,4.40
2023-04-29T02:25:21.352Z,4.67
2023-04-29T02:27:50.106Z,4.40
2023-04-29T02:30:17.569Z,4.37
2023-04-29T02:32:45.148Z,4.40
2023-04-29T02:35:15.275Z,4.47
2023-04-29T02:37:42.739Z,4.60
2023-04-29T02:40:10.516Z,5.90
2023-04-29T02:42:38.234Z,6.80
2023-04-29T02:45:07.948Z,6.63
2023-04-29T02:47:35.365Z,6.03
2023-04-29T02:50:02.951Z,6.20
2023-04-29T02:52:31.133Z,6.50
2023-04-29T02:54:58.498Z,6.70
2023-04-29T02:57:26.063Z,7.43
2023-04-29T02:59:53.698Z,7.87
2023-04-29T03:02:22.765Z,8.33
2023-04-29T03:04:53.696Z,7.73
2023-04-29T03:07:21.429Z,8.80
2023-04-29T03:09:48.826Z,9.20
2023-04-29T03:12:16.771Z,9.33
2023-04-29T03:14:44.283Z,9.53
2023-04-29T03:17:12.028Z,8.83
2023-04-29T03:19:40.885Z,8.73
2023-04-29T03:22:09.978Z,9.57
2023-04-29T03:24:37.519Z,8.70
2023-04-29T03:27:04.992Z,8.67
2023-04-29T03:29:33.889Z,8.33
2023-04-29T03:32:02.626Z,9.00
2023-04-29T03:34:30.373Z,8.90
2023-04-29T03:37:19.064Z,8.57
2023-04-29T03:39:52.693Z,9.27
2023-04-29T03:42:20.468Z,9.00
2023-04-29T03:44:47.885Z,8.93
2023-04-29T03:47:15.276Z,9.37
2023-04-29T03:49:42.737Z,8.40
2023-04-29T03:52:12.459Z,9.10
2023-04-29T03:54:41.761Z,8.00
2023-04-29T03:57:09.330Z,8.23
2023-04-29T03:59:36.714Z,8.00
2023-04-29T04:02:04.116Z,7.33
2023-04-29T04:04:31.941Z,7.17
2023-04-29T04:07:00.788Z,6.90
2023-04-29T04:09:34.205Z,6.80
2023-04-29T04:12:03.027Z,6.50
2023-04-29T04:14:30.548Z,6.83
2023-04-29T04:16:57.994Z,7.50
2023-04-29T04:19:26.929Z,7.40
2023-04-29T04:21:54.982Z,6.90
2023-04-29T04:24:22.375Z,6.80
2023-04-29T04:26:49.814Z,6.67
2023-04-29T04:29:23.767Z,5.83
2023-04-29T04:32:14.387Z,6.47
2023-04-29T04:34:42.017Z,6.50
2023-04-29T04:37:10.332Z,6.03
2023-04-29T04:39:39.460Z,6.37
2023-04-29T04:42:07.190Z,6.03
2023-04-29T04:44:37.457Z,6.37
2023-04-29T04:47:11.481Z,6.80
2023-04-29T04:49:52.808Z,6.07
2023-04-29T04:52:22.349Z,6.47
2023-04-29T04:55:00.095Z,6.30
2023-04-29T04:57:30.330Z,6.10
2023-04-29T05:00:04.209Z,6.23
2023-04-29T05:02:32.283Z,7.50
2023-04-29T05:04:59.743Z,6.70
2023-04-29T05:07:30.453Z,7.50
2023-04-29T05:10:04.374Z,7.57
2023-04-29T05:12:35.183Z,7.47
2023-04-29T05:15:04.973Z,7.00
2023-04-29T05:17:34.496Z,7.20
2023-04-29T05:20:01.932Z,6.97
2023-04-29T05:22:30.632Z,7.00
2023-04-29T05:25:02.675Z,6.60
2023-04-29T05:27:31.606Z,7.07
2023-04-29T05:29:59.540Z,6.93
2023-04-29T05:32:28.429Z,6.50
2023-04-29T05:34:56.657Z,7.90
2023-04-29T05:37:24.120Z,8.20
2023-04-29T05:40:05.029Z,9.00
2023-04-29T05:42:33.865Z,8.10
2023-04-29T05:45:02.095Z,9.10
2023-04-29T05:47:31.362Z,10.70
2023-04-29T05:49:58.810Z,11.37
2023-04-29T05:52:26.332Z,11.53
2023-04-29T05:54:53.966Z,11.37
2023-04-29T05:57:21.400Z,9.97
2023-04-29T05:59:49.471Z,8.83
2023-04-29T06:02:16.986Z,8.60
2023-04-29T06:04:47.666Z,8.43
2023-04-29T06:07:38.428Z,8.10
2023-04-29T06:10:27.577Z,7.27
2023-04-29T06:12:54.979Z,7.17
2023-04-29T06:15:22.562Z,7.10
2023-04-29T06:17:50.105Z,5.93
2023-04-29T06:20:18.965Z,6.27
2023-04-29T06:22:46.380Z,4.90
2023-04-29T06:25:13.865Z,5.17
2023-04-29T06:27:49.295Z,4.57
2023-04-29T06:30:18.238Z,4.40
2023-04-29T06:32:45.666Z,4.70
2023-04-29T06:35:13.284Z,3.87
2023-04-29T06:38:00.505Z,4.40
2023-04-29T06:40:37.165Z,4.23
2023-04-29T06:43:35.006Z,3.37
2023-04-29T06:46:17.101Z,3.10
2023-04-29T06:48:51.818Z,3.43
2023-04-29T06:51:19.314Z,3.10
2023-04-29T06:53:48.136Z,3.23
2023-04-29T06:56:17.023Z,3.33
2023-04-29T06:58:44.736Z,3.07
2023-04-29T07:01:12.160Z,3.33
2023-04-29T07:03:39.751Z,3.00
2023-04-29T07:06:07.590Z,2.70
2023-04-29T07:08:34.994Z,2.50
2023-04-29T07:11:04.236Z,2.40
2023-04-29T07:13:31.622Z,3.50
2023-04-29T07:15:58.976Z,3.77
2023-04-29T07:18:26.721Z,2.00
2023-04-29T07:20:55.696Z,3.07
2023-04-29T07:23:23.132Z,3.17
2023-04-29T07:25:52.240Z,4.50
2023-04-29T07:28:22.843Z,2.60
2023-04-29T07:30:53.654Z,1.80
2023-04-29T07:33:21.084Z,1.40
2023-04-29T07:35:48.500Z,1.53
2023-04-29T07:38:15.893Z,2.00
2023-04-29T07:40:43.454Z,2.00
2023-04-29T07:43:10.880Z,2.10
2023-04-29T07:45:39.809Z,1.97
2023-04-29T07:48:07.301Z,1.83
2023-04-29T07:50:35.263Z,2.00
2023-04-29T07:53:02.898Z,1.70
2023-04-29T07:55:30.904Z,1.70
2023-04-29T07:58:00.453Z,2.10
2023-04-29T08:00:28.397Z,1.77
2023-04-29T08:02:57.867Z,2.00
2023-04-29T08:05:26.091Z,1.83
2023-04-29T08:07:53.838Z,2.00
2023-04-29T08:10:22.343Z,1.90
2023-04-29T08:12:50.441Z,2.17
2023-04-29T08:15:18.521Z,1.70
2023-04-29T08:17:46.067Z,1.90
2023-04-29T08:20:15.321Z,2.00
2023-04-29T08:22:42.730Z,1.90
2023-04-29T08:25:10.501Z,2.00
2023-04-29T08:27:37.917Z,2.10
2023-04-29T08:30:06.072Z,1.90
2023-04-29T08:32:35.090Z,1.93
2023-04-29T08:35:03.130Z,1.90
2023-04-29T08:37:31.887Z,1.70
2023-04-29T08:39:59.308Z,1.90
2023-04-29T08:42:33.191Z,1.80
2023-04-29T08:45:01.621Z,1.97
2023-04-29T08:47:31.713Z,1.90
2023-04-29T08:50:02.557Z,1.80
2023-04-29T08:52:29.954Z,1.90
2023-04-29T08:54:58.907Z,1.90
2023-04-29T08:57:27.225Z,1.87
2023-04-29T08:59:54.627Z,1.97
2023-04-29T09:02:23.707Z,1.80
2023-04-29T09:04:56.356Z,1.77
2023-04-29T09:07:24.571Z,1.93
2023-04-29T09:09:52.660Z,1.70
2023-04-29T09:12:21.840Z,1.70
2023-04-29T09:14:49.224Z,1.80
2023-04-29T09:17:18.118Z,1.80
2023-04-29T09:19:45.650Z,1.63
2023-04-29T09:22:13.067Z,1.43
2023-04-29T09:24:40.772Z,1.73
2023-04-29T09:27:09.115Z,1.70
2023-04-29T09:29:39.152Z,1.60
2023-04-29T09:32:19.830Z,1.97
2023-04-29T09:34:47.291Z,1.83
2023-04-29T09:37:24.953Z,2.10
2023-04-29T09:39:52.480Z,1.80
2023-04-29T09:42:19.886Z,1.80
2023-04-29T09:44:49.069Z,1.50
2023-04-29T09:47:17.192Z,1.50
2023-04-29T09:49:46.012Z,1.50
2023-04-29T09:52:14.291Z,1.43
2023-04-29T09:54:43.483Z,1.30
2023-04-29T09:57:11.312Z,1.40
2023-04-29T09:59:39.611Z,1.40
2023-04-29T10:02:15.243Z,1.30
2023-04-29T10:04:43.451Z,1.70
2023-04-29T10:07:14.833Z,1.80
2023-04-29T10:09:42.244Z,2.30
2023-04-29T10:12:09.912Z,1.70
2023-04-29T10:14:40.257Z,1.90
2023-04-29T10:17:11.521Z,1.70
2023-04-29T10:19:40.264Z,1.63
2023-04-29T10:22:09.906Z,1.57
2023-04-29T10:24:38.628Z,1.60
2023-04-29T10:27:07.958Z,1.40
2023-04-29T10:29:35.914Z,1.50
2023-04-29T10:32:04.152Z,1.50
2023-04-29T10:34:33.569Z,1.20
2023-04-29T10:37:01.481Z,1.27
2023-04-29T10:39:33.274Z,1.20
2023-04-29T10:42:00.797Z,1.27
2023-04-29T10:44:28.209Z,1.40
2023-04-29T10:47:10.720Z,1.33
2023-04-29T10:49:40.621Z,1.10
2023-04-29T10:52:08.026Z,1.20
2023-04-29T10:54:35.414Z,1.30
2023-04-29T10:57:04.006Z,1.30
2023-04-29T10:59:46.168Z,1.20
2023-04-29T11:02:15.123Z,1.20
2023-04-29T11:04:57.454Z,1.40
2023-04-29T11:07:30.393Z,1.60
2023-04-29T11:09:57.820Z,1.60
2023-04-29T11:12:25.220Z,1.33
2023-04-29T11:14:54.422Z,1.40
2023-04-29T11:17:23.269Z,1.50
2023-04-29T11:19:52.220Z,1.30
2023-04-29T11:22:26.665Z,1.00
2023-04-29T11:24:57.156Z,1.30
2023-04-29T11:27:26.441Z,1.30
2023-04-29T11:29:58.256Z,1.20
2023-04-29T11:32:26.651Z,1.20
2023-04-29T11:34:54.625Z,1.13
2023-04-29T11:37:23.215Z,0.83
2023-04-29T11:39:50.730Z,1.00
2023-04-29T11:42:22.551Z,0.93
2023-04-29T11:44:53.099Z,0.90
2023-04-29T11:47:21.373Z,0.80
2023-04-29T11:49:48.756Z,1.17
2023-04-29T11:52:16.466Z,1.00
2023-04-29T11:54:43.977Z,0.97
2023-04-29T11:57:11.863Z,0.90
2023-04-29T11:59:42.979Z,1.10
2023-04-29T12:02:12.787Z,0.87
2023-04-29T12:04:46.021Z,1.10
2023-04-29T12:07:15.461Z,1.20
2023-04-29T12:09:43.516Z,1.03
2023-04-29T12:12:10.976Z,1.07
2023-04-29T12:14:39.131Z,0.90
2023-04-29T12:17:08.174Z,1.23
2023-04-29T12:19:37.281Z,1.07
2023-04-29T12:22:07.979Z,1.00
2023-04-29T12:24:36.830Z,0.93
2023-04-29T12:27:04.604Z,1.10
2023-04-29T12:29:32.540Z,1.10
2023-04-29T12:32:00.480Z,1.10
2023-04-29T12:34:31.335Z,1.00
2023-04-29T12:37:00.016Z,1.00
2023-04-29T12:39:27.893Z,1.07
2023-04-29T12:41:57.646Z,1.10
2023-04-29T12:44:25.213Z,0.90
2023-04-29T12:46:54.643Z,1.00
2023-04-29T12:49:25.108Z,1.30
2023-04-29T12:51:53.883Z,0.97
2023-04-29T12:54:21.292Z,1.23
2023-04-29T12:56:49.918Z,1.30
2023-04-29T12:59:17.316Z,1.20
2023-04-29T13:01:45.467Z,1.10
2023-04-29T13:04:13.188Z,1.00
2023-04-29T13:06:41.694Z,1.17
2023-04-29T13:09:17.461Z,1.17
2023-04-29T13:11:46.407Z,1.15
2023-04-29T13:14:13.787Z,1.10
2023-04-29T13:16:41.447Z,1.07
2023-04-29T13:19:27.707Z,0.90
2023-04-29T13:21:56.424Z,0.70
2023-04-29T13:24:25.127Z,0.70
2023-04-29T13:26:53.025Z,0.60
2023-04-29T13:29:20.768Z,0.90
2023-04-29T13:31:48.187Z,0.95
2023-04-29T13:34:15.783Z,0.80
2023-04-29T13:36:43.268Z,0.70
2023-04-29T13:39:11.056Z,0.93
2023-04-29T13:41:44.235Z,0.97
2023-04-29T13:46:44.211Z,0.90
2023-04-29T13:49:38.305Z,0.90
2023-04-29T13:52:25.966Z,0.75
2023-04-29T13:59:53.193Z,1.00
2023-04-29T14:02:25.472Z,0.80
2023-04-29T14:04:54.452Z,0.90
2023-04-29T14:07:22.415Z,1.00
2023-04-29T14:09:50.252Z,0.90
2023-04-29T14:12:19.161Z,0.90
2023-04-29T14:14:46.612Z,0.85
2023-04-29T14:17:13.983Z,1.00
2023-04-29T14:19:41.538Z,1.00
2023-04-29T14:22:09.218Z,0.88
2023-04-29T14:24:36.572Z,0.80
2023-04-29T14:27:04.231Z,0.98
2023-04-29T14:29:33.026Z,0.90
2023-04-29T14:32:00.520Z,0.82
2023-04-29T14:34:27.954Z,0.90
2023-04-29T14:36:55.315Z,0.90
2023-04-29T14:39:22.693Z,0.95
2023-04-29T14:41:50.038Z,0.90
2023-04-29T14:44:17.408Z,0.90
2023-04-29T14:46:46.427Z,0.95
2023-04-29T14:49:13.919Z,0.70
2023-04-29T14:51:41.286Z,1.00
2023-04-29T14:54:09.066Z,0.90
2023-04-29T14:56:37.732Z,0.80
2023-04-29T14:59:07.133Z,1.10
2023-04-29T15:01:34.604Z,0.80
2023-04-29T15:04:04.198Z,1.10
2023-04-29T15:06:32.381Z,0.90
2023-04-29T15:09:00.019Z,0.80
2023-04-29T15:11:27.883Z,0.90
2023-04-29T15:13:55.238Z,0.93
2023-04-29T15:16:22.733Z,0.98
2023-04-29T15:18:50.194Z,0.80
2023-04-29T15:21:19.028Z,0.88
2023-04-29T15:23:46.492Z,1.08
2023-04-29T15:26:13.881Z,0.88
2023-04-29T15:28:43.084Z,0.80
2023-04-29T15:31:10.693Z,0.88
2023-04-29T15:33:38.058Z,0.90
2023-04-29T15:36:05.747Z,0.80
2023-04-29T15:38:34.471Z,0.90
2023-04-29T15:41:03.355Z,0.90
2023-04-29T15:43:31.718Z,1.00
2023-04-29T15:45:59.844Z,0.90
2023-04-29T15:48:27.569Z,0.88
2023-04-29T15:50:55.075Z,1.00
2023-04-29T15:53:23.157Z,1.40
2023-04-29T15:55:52.247Z,1.58
2023-04-29T15:58:19.657Z,2.00
2023-04-29T16:00:47.151Z,1.10
2023-04-29T16:03:14.665Z,0.93
2023-04-29T16:05:42.082Z,1.00
2023-04-29T16:08:09.479Z,1.20
2023-04-29T16:10:37.303Z,1.20
2023-04-29T16:13:06.031Z,1.83
2023-04-29T16:15:33.480Z,1.10
2023-04-29T16:18:01.681Z,1.23
2023-04-29T16:20:29.108Z,1.13
2023-04-29T16:22:56.496Z,1.30
2023-04-29T16:25:23.857Z,1.50
2023-04-29T16:27:51.232Z,1.45
2023-04-29T16:30:19.976Z,1.30
2023-04-29T16:32:47.875Z,1.38
2023-04-29T16:35:15.358Z,1.30
2023-04-29T16:37:42.747Z,1.20
2023-04-29T16:40:10.914Z,1.70
2023-04-29T16:42:38.356Z,1.50
2023-04-29T16:45:06.154Z,1.40
2023-04-29T16:47:35.311Z,1.57
2023-04-29T16:50:02.993Z,1.40
2023-04-29T16:52:30.381Z,2.00
2023-04-29T16:55:00.205Z,2.30
2023-04-29T16:57:27.818Z,1.90
2023-04-29T16:59:55.516Z,1.50
2023-04-29T17:02:23.242Z,1.57
2023-04-29T17:04:52.396Z,1.60
2023-04-29T17:07:20.200Z,1.87
2023-04-29T17:09:48.314Z,1.70
2023-04-29T17:12:15.841Z,1.67
2023-04-29T17:14:44.249Z,1.50
2023-04-29T17:17:11.721Z,1.83
2023-04-29T17:19:39.094Z,1.63
2023-04-29T17:22:07.952Z,1.30
2023-04-29T17:24:35.575Z,1.83
2023-04-29T17:27:02.995Z,1.57
2023-04-29T17:29:30.395Z,1.50
2023-04-29T17:32:01.897Z,1.50
2023-04-29T17:34:30.980Z,1.67
2023-04-29T17:36:58.381Z,1.60
2023-04-29T17:39:27.234Z,1.70
2023-04-29T17:41:54.634Z,1.50
2023-04-29T17:44:23.369Z,1.60
2023-04-29T17:46:51.165Z,1.40
2023-04-29T17:49:18.569Z,1.50
2023-04-29T17:51:46.015Z,1.60
2023-04-29T17:54:13.451Z,1.50
2023-04-29T17:56:42.157Z,1.30
2023-04-29T17:59:09.566Z,1.67
2023-04-29T18:01:37.066Z,1.70
2023-04-29T18:04:05.735Z,1.70
2023-04-29T18:06:33.409Z,1.90
2023-04-29T18:09:00.917Z,1.73
2023-04-29T18:11:28.331Z,1.67
2023-04-29T18:13:57.089Z,1.43
2023-04-29T18:16:24.635Z,1.80
2023-04-29T18:18:53.956Z,1.40
2023-04-29T18:21:23.503Z,2.00
2023-04-29T18:23:51.053Z,1.50
2023-04-29T18:26:18.441Z,1.40
2023-04-29T18:28:46.146Z,1.50
2023-04-29T18:31:15.056Z,1.60
2023-04-29T18:33:42.495Z,1.60
2023-04-29T18:36:10.035Z,1.87
2023-04-29T18:38:37.553Z,1.80
2023-04-29T18:41:06.578Z,1.70
2023-04-29T18:43:34.053Z,2.20
2023-04-29T18:46:01.722Z,1.50
2023-04-29T18:48:30.972Z,1.73
2023-04-29T18:51:00.017Z,1.60
2023-04-29T18:53:27.822Z,2.10
2023-04-29T18:55:55.254Z,1.70
2023-04-29T18:58:22.635Z,1.80
2023-04-29T19:00:50.080Z,1.70
2023-04-29T19:03:17.455Z,1.80
2023-04-29T19:05:48.044Z,1.50
2023-04-29T19:08:16.294Z,1.70
2023-04-29T19:10:43.840Z,1.40
2023-04-29T19:13:11.331Z,1.63
2023-04-29T19:15:38.730Z,1.97
2023-04-29T19:18:06.418Z,1.90
2023-04-29T19:20:33.931Z,1.90
2023-04-29T19:23:02.680Z,1.90
2023-04-29T19:25:31.467Z,7.80
2023-04-29T19:27:58.906Z,6.77
2023-04-29T19:30:26.748Z,5.53
2023-04-29T19:32:54.191Z,8.17
2023-04-29T19:35:21.714Z,7.03
2023-04-29T19:37:49.140Z,5.70
2023-04-29T19:40:18.039Z,4.83
2023-04-29T19:42:45.443Z,4.77
2023-04-29T19:45:13.002Z,8.33
2023-04-29T19:47:40.539Z,20.10
2023-04-29T19:50:08.162Z,17.57
2023-04-29T19:52:35.595Z,4.07
2023-04-29T19:55:02.951Z,6.37
2023-04-29T19:57:31.935Z,5.93
2023-04-29T19:59:59.299Z,6.23
2023-04-29T20:02:26.992Z,4.10
2023-04-29T20:04:54.459Z,5.40
2023-04-29T20:07:21.907Z,4.03
2023-04-29T20:09:49.302Z,4.10
2023-04-29T20:12:16.732Z,6.40
2023-04-29T20:14:45.458Z,6.73
2023-04-29T20:17:13.413Z,5.83
2023-04-29T20:19:40.851Z,10.67
2023-04-29T20:22:08.272Z,7.03
2023-04-29T20:24:35.646Z,5.20
2023-04-29T20:27:03.624Z,4.57
2023-04-29T20:29:31.023Z,4.77
2023-04-29T20:31:59.963Z,4.20
2023-04-29T20:34:27.417Z,5.27
2023-04-29T20:36:54.849Z,6.03
2023-04-29T20:39:22.260Z,5.13
2023-04-29T20:41:49.631Z,4.73
2023-04-29T20:44:17.015Z,4.30
2023-04-29T20:46:45.963Z,4.23
2023-04-29T20:49:14.874Z,4.87
2023-04-29T20:51:42.273Z,4.77
2023-04-29T20:54:09.740Z,4.57
2023-04-29T20:56:37.150Z,4.57
2023-04-29T20:59:04.548Z,4.83
2023-04-29T21:01:31.983Z,4.60
2023-04-29T21:03:59.363Z,4.57
2023-04-29T21:06:28.143Z,4.50
2023-04-29T21:08:55.535Z,4.10
2023-04-29T21:11:23.596Z,4.30
2023-04-29T21:13:51.468Z,4.80
2023-04-29T21:16:19.022Z,4.63
2023-04-29T21:18:46.845Z,4.43
2023-04-29T21:21:14.232Z,5.10
2023-04-29T21:23:42.920Z,4.93
2023-04-29T21:26:10.371Z,5.13
2023-04-29T21:28:37.773Z,4.70
2023-04-29T21:31:05.421Z,4.67
2023-04-29T21:33:32.862Z,5.03
2023-04-29T21:36:00.241Z,4.63
2023-04-29T21:38:28.147Z,4.93
2023-04-29T21:41:00.129Z,4.80
2023-04-29T21:43:28.306Z,4.50
2023-04-29T21:45:55.909Z,4.43
2023-04-29T21:48:23.310Z,5.00
2023-04-29T21:50:50.659Z,4.80
2023-04-29T21:53:18.128Z,4.57
2023-04-29T21:55:45.560Z,4.80
2023-04-29T21:58:14.365Z,4.70
2023-04-29T22:00:47.825Z,5.10
2023-04-29T22:03:15.613Z,5.20
2023-04-29T22:05:43.961Z,5.30
2023-04-29T22:08:11.399Z,5.40
2023-04-29T22:10:41.373Z,4.67
2023-04-29T22:13:08.819Z,5.23
2023-04-29T22:15:37.535Z,4.73
2023-04-29T22:18:05.168Z,5.23
2023-04-29T22:20:32.699Z,5.13
2023-04-29T22:23:00.129Z,5.20
2023-04-29T22:25:27.504Z,5.33
2023-04-29T22:27:55.420Z,5.40
2023-04-29T22:30:22.808Z,5.20
2023-04-29T22:32:51.545Z,5.97
2023-04-29T22:35:18.970Z,5.70
2023-04-29T22:37:46.432Z,5.70
2023-04-29T22:40:14.446Z,5.43
2023-04-29T22:42:42.825Z,5.77
2023-04-29T22:45:11.124Z,5.63
2023-04-29T22:47:38.554Z,6.37
2023-04-29T22:50:08.102Z,6.20
2023-04-29T22:52:35.493Z,6.17
2023-04-29T22:55:03.206Z,5.30
2023-04-29T22:57:30.605Z,5.40
2023-04-29T22:59:58.345Z,5.40
2023-04-29T23:02:29.131Z,6.00
2023-04-29T23:04:57.360Z,4.80
2023-04-29T23:07:26.627Z,5.60
2023-04-29T23:09:54.302Z,5.47
2023-04-29T23:12:22.282Z,5.20
2023-04-29T23:14:50.910Z,6.07
2023-04-29T23:17:18.312Z,5.50
2023-04-29T23:19:45.990Z,5.20
2023-04-29T23:22:13.423Z,5.23
2023-04-29T23:24:42.130Z,5.63
2023-04-29T23:27:09.552Z,5.43
2023-04-29T23:29:36.938Z,5.70
2023-04-29T23:32:04.433Z,6.17
2023-04-29T23:34:31.796Z,6.23
2023-04-29T23:37:03.193Z,5.23
2023-04-29T23:39:30.590Z,5.23
2023-04-29T23:41:59.335Z,5.00
2023-04-29T23:44:26.731Z,4.83
2023-04-29T23:46:54.505Z,4.90
2023-04-29T23:49:21.933Z,5.00
2023-04-29T23:51:49.426Z,4.90
2023-04-29T23:54:16.822Z,4.93
2023-04-29T23:56:44.194Z,5.30
2023-04-29T23:59:13.034Z,5.47
